createdAt,value
2017-08-08T00:00:30.798Z,981
2017-08-08T00:01:33.121Z,981
2017-08-08T00:02:35.460Z,981.1
2017-08-08T00:03:37.862Z,981.1
2017-08-08T00:04:40.237Z,981.1
2017-08-08T00:05:42.572Z,981.1
2017-08-08T00:06:44.943Z,981.1
2017-08-08T00:07:47.268Z,981.1
2017-08-08T00:08:49.603Z,981.1
2017-08-08T00:09:51.964Z,981
2017-08-08T00:10:54.323Z,981.1
2017-08-08T00:11:56.751Z,981
2017-08-08T00:12:59.087Z,981
2017-08-08T00:14:01.463Z,980.9
2017-08-08T00:15:03.767Z,981
2017-08-08T00:16:06.086Z,981
2017-08-08T00:17:08.472Z,980.9
2017-08-08T00:18:10.816Z,981
2017-08-08T00:19:13.147Z,981
2017-08-08T00:20:15.475Z,981
2017-08-08T00:21:17.810Z,981
2017-08-08T00:22:20.208Z,981
2017-08-08T00:23:22.533Z,981
2017-08-08T00:24:24.828Z,981
2017-08-08T00:25:27.092Z,981
2017-08-08T00:26:29.410Z,981
2017-08-08T00:27:31.802Z,980.9
2017-08-08T00:28:34.180Z,980.9
2017-08-08T00:29:36.514Z,980.9
2017-08-08T00:30:38.898Z,980.9
2017-08-08T00:31:41.220Z,980.8
2017-08-08T00:32:43.668Z,980.8
2017-08-08T00:33:45.984Z,980.8
2017-08-08T00:34:48.337Z,980.8
2017-08-08T00:35:50.699Z,980.8
2017-08-08T00:36:53.024Z,980.8
2017-08-08T00:37:55.531Z,980.8
2017-08-08T00:38:58.189Z,980.8
2017-08-08T00:40:00.551Z,980.8
2017-08-08T00:41:03.257Z,980.8
2017-08-08T00:42:05.569Z,980.7
2017-08-08T00:43:07.924Z,980.7
2017-08-08T00:44:10.230Z,980.7
2017-08-08T00:45:12.534Z,980.7
2017-08-08T00:46:14.849Z,980.6
2017-08-08T00:47:17.163Z,980.6
2017-08-08T00:48:19.527Z,980.6
2017-08-08T00:49:21.828Z,980.6
2017-08-08T00:50:24.188Z,980.6
2017-08-08T00:51:26.478Z,980.6
2017-08-08T00:52:28.804Z,980.5
2017-08-08T00:53:31.199Z,980.5
2017-08-08T00:54:33.513Z,980.5
2017-08-08T00:55:35.820Z,980.5
2017-08-08T00:56:38.190Z,980.4
2017-08-08T00:57:40.501Z,980.5
2017-08-08T00:58:43.035Z,980.5
2017-08-08T00:59:45.336Z,980.4
2017-08-08T01:00:47.660Z,980.4
2017-08-08T01:01:50.008Z,980.4
2017-08-08T01:02:52.350Z,980.4
2017-08-08T01:03:54.688Z,980.4
2017-08-08T01:04:56.974Z,980.3
2017-08-08T01:05:59.305Z,980.3
2017-08-08T01:07:01.632Z,980.3
2017-08-08T01:08:03.953Z,980.2
2017-08-08T01:09:06.356Z,980.3
2017-08-08T01:10:08.640Z,980.2
2017-08-08T01:11:11.004Z,980.3
2017-08-08T01:12:13.294Z,980.3
2017-08-08T01:13:15.598Z,980.3
2017-08-08T01:14:17.997Z,980.2
2017-08-08T01:15:20.351Z,980.2
2017-08-08T01:16:22.672Z,980.2
2017-08-08T01:17:24.978Z,980.2
2017-08-08T01:18:27.304Z,980.2
2017-08-08T01:19:29.699Z,980.2
2017-08-08T01:20:32.049Z,980.3
2017-08-08T01:21:34.357Z,980.2
2017-08-08T01:22:36.677Z,980.2
2017-08-08T01:23:38.990Z,980.2
2017-08-08T01:24:41.336Z,980.2
2017-08-08T01:25:43.623Z,980.2
2017-08-08T01:26:45.914Z,980.2
2017-08-08T01:27:48.249Z,980.2
2017-08-08T01:28:50.656Z,980.2
2017-08-08T01:29:52.993Z,980.2
2017-08-08T01:30:55.301Z,980.1
2017-08-08T01:31:57.674Z,980.1
2017-08-08T01:33:00.004Z,980
2017-08-08T01:34:02.366Z,980.1
2017-08-08T01:35:04.820Z,980.1
2017-08-08T01:36:07.152Z,980.1
2017-08-08T01:37:09.455Z,980.1
2017-08-08T01:38:11.763Z,980.1
2017-08-08T01:39:14.162Z,980.1
2017-08-08T01:40:16.901Z,980.1
2017-08-08T01:41:19.220Z,980.2
2017-08-08T01:42:21.564Z,980.1
2017-08-08T01:43:23.897Z,980
2017-08-08T01:44:26.270Z,980.1
2017-08-08T01:45:28.633Z,980
2017-08-08T01:46:30.978Z,980.1
2017-08-08T01:47:33.279Z,980
2017-08-08T01:48:35.588Z,980
2017-08-08T01:49:37.922Z,980
2017-08-08T01:50:40.352Z,980
2017-08-08T01:51:42.720Z,979.9
2017-08-08T01:52:45.020Z,979.9
2017-08-08T01:53:47.308Z,979.9
2017-08-08T01:54:49.631Z,979.9
2017-08-08T01:55:51.992Z,979.9
2017-08-08T01:56:54.408Z,979.3
2017-08-08T01:57:56.732Z,979.8
2017-08-08T01:58:59.084Z,979.7
2017-08-08T02:00:01.483Z,979.7
2017-08-08T02:01:03.814Z,979.7
2017-08-08T02:02:06.189Z,979.7
2017-08-08T02:03:08.582Z,978.8
2017-08-08T02:04:10.886Z,979.7
2017-08-08T02:05:13.232Z,979.7
2017-08-08T02:06:15.547Z,979.7
2017-08-08T02:07:17.996Z,979.6
2017-08-08T02:08:20.387Z,979.6
2017-08-08T02:09:22.740Z,979.6
2017-08-08T02:10:25.097Z,979.6
2017-08-08T02:11:27.451Z,979.6
2017-08-08T02:12:29.881Z,979.6
2017-08-08T02:13:32.210Z,979.6
2017-08-08T02:14:34.536Z,979.5
2017-08-08T02:15:36.908Z,979.6
2017-08-08T02:16:39.263Z,979.6
2017-08-08T02:17:41.600Z,979.5
2017-08-08T02:18:43.918Z,979.5
2017-08-08T02:19:46.239Z,979.5
2017-08-08T02:20:48.616Z,979.1
2017-08-08T02:21:50.940Z,979.5
2017-08-08T02:22:53.263Z,979.5
2017-08-08T02:23:55.572Z,979.6
2017-08-08T02:24:57.903Z,979.6
2017-08-08T02:26:00.425Z,978.8
2017-08-08T02:27:02.777Z,979.6
2017-08-08T02:28:05.075Z,979.6
2017-08-08T02:29:07.400Z,979.6
2017-08-08T02:30:09.704Z,979.5
2017-08-08T02:31:12.066Z,979.5
2017-08-08T02:32:14.418Z,979.5
2017-08-08T02:33:16.720Z,979.5
2017-08-08T02:34:19.072Z,979.6
2017-08-08T02:35:21.442Z,979.6
2017-08-08T02:36:23.756Z,979.6
2017-08-08T02:37:26.130Z,979.6
2017-08-08T02:38:28.431Z,979.6
2017-08-08T02:39:30.790Z,979.5
2017-08-08T02:40:33.139Z,979.5
2017-08-08T02:41:35.477Z,979.5
2017-08-08T02:42:37.865Z,979.5
2017-08-08T02:43:40.181Z,979.4
2017-08-08T02:44:42.488Z,979.5
2017-08-08T02:45:44.883Z,979.5
2017-08-08T02:46:47.259Z,979.5
2017-08-08T02:47:49.790Z,979.5
2017-08-08T02:48:52.162Z,979.5
2017-08-08T02:49:54.440Z,979.4
2017-08-08T02:50:56.827Z,979.5
2017-08-08T02:51:59.240Z,979.5
2017-08-08T02:53:01.556Z,979.4
2017-08-08T02:54:03.947Z,979.4
2017-08-08T02:55:06.300Z,979.4
2017-08-08T02:56:08.673Z,979.4
2017-08-08T02:57:10.992Z,979.4
2017-08-08T02:58:13.342Z,979.4
2017-08-08T02:59:15.736Z,979.3
2017-08-08T03:00:18.052Z,979.3
2017-08-08T03:01:20.460Z,979.3
2017-08-08T03:02:22.792Z,979.3
2017-08-08T03:03:25.489Z,979.3
2017-08-08T03:04:27.770Z,979.3
2017-08-08T03:05:30.100Z,979.3
2017-08-08T03:06:32.431Z,979.3
2017-08-08T03:07:34.735Z,979.3
2017-08-08T03:08:37.129Z,979.3
2017-08-08T03:09:39.445Z,979.3
2017-08-08T03:10:41.775Z,979.3
2017-08-08T03:11:44.087Z,979.3
2017-08-08T03:12:46.414Z,979.3
2017-08-08T03:13:48.796Z,979.3
2017-08-08T03:14:51.134Z,979.3
2017-08-08T03:15:53.477Z,979.3
2017-08-08T03:16:55.789Z,979.4
2017-08-08T03:17:58.088Z,978.8
2017-08-08T03:19:00.460Z,979.3
2017-08-08T03:20:02.832Z,979.3
2017-08-08T03:21:05.154Z,979.3
2017-08-08T03:22:07.440Z,979.3
2017-08-08T03:23:09.763Z,979.2
2017-08-08T03:24:12.196Z,979.3
2017-08-08T03:25:14.505Z,979.2
2017-08-08T03:26:16.889Z,979.3
2017-08-08T03:27:19.198Z,979.2
2017-08-08T03:28:21.550Z,979.2
2017-08-08T03:29:23.882Z,979.1
2017-08-08T03:30:26.197Z,979.1
2017-08-08T03:31:28.547Z,979.1
2017-08-08T03:32:30.921Z,979.1
2017-08-08T03:33:33.222Z,979
2017-08-08T03:34:35.588Z,979
2017-08-08T03:35:37.935Z,978.9
2017-08-08T03:36:40.282Z,979
2017-08-08T03:37:42.604Z,979
2017-08-08T03:38:44.931Z,979
2017-08-08T03:39:47.262Z,979
2017-08-08T03:40:49.589Z,979
2017-08-08T03:41:52.028Z,979
2017-08-08T03:42:54.346Z,979
2017-08-08T03:43:56.638Z,978.9
2017-08-08T03:44:58.989Z,978.9
2017-08-08T03:46:01.381Z,978.9
2017-08-08T03:47:03.734Z,978.9
2017-08-08T03:48:06.076Z,978.8
2017-08-08T03:49:08.446Z,978.7
2017-08-08T03:50:11.018Z,978.3
2017-08-08T03:51:13.393Z,978.7
2017-08-08T03:52:15.742Z,978.7
2017-08-08T03:53:18.041Z,978.8
2017-08-08T03:54:20.368Z,978.8
2017-08-08T03:55:22.802Z,978.8
2017-08-08T03:56:25.106Z,978.8
2017-08-08T03:57:27.436Z,978.8
2017-08-08T03:58:29.752Z,978.9
2017-08-08T03:59:32.088Z,978.7
2017-08-08T04:01:45.749Z,978.8
2017-08-08T04:02:48.097Z,978.7
2017-08-08T04:03:50.429Z,978.8
2017-08-08T04:04:52.767Z,978.8
2017-08-08T04:05:55.113Z,978.8
2017-08-08T04:06:57.387Z,978.8
2017-08-08T04:07:59.689Z,978.8
2017-08-08T04:09:02.105Z,978.8
2017-08-08T04:10:04.416Z,978.8
2017-08-08T04:11:06.778Z,978.8
2017-08-08T04:12:09.095Z,978.8
2017-08-08T04:13:11.389Z,978.8
2017-08-08T04:14:13.720Z,978.2
2017-08-08T04:15:16.056Z,978.7
2017-08-08T04:16:18.358Z,978.7
2017-08-08T04:17:20.718Z,978.7
2017-08-08T04:18:23.344Z,978.6
2017-08-08T04:19:25.652Z,978.6
2017-08-08T04:20:27.937Z,978.6
2017-08-08T04:21:30.246Z,978.6
2017-08-08T04:22:32.581Z,978.6
2017-08-08T04:23:35.002Z,978.6
2017-08-08T04:24:37.309Z,978.6
2017-08-08T04:26:50.985Z,978.5
2017-08-08T04:27:53.623Z,978.5
2017-08-08T04:28:55.951Z,978.4
2017-08-08T04:29:58.341Z,978.3
2017-08-08T04:31:00.735Z,978.3
2017-08-08T04:32:03.121Z,978.3
2017-08-08T04:33:05.452Z,978.2
2017-08-08T04:34:07.811Z,978.2
2017-08-08T04:35:10.216Z,978.2
2017-08-08T04:36:12.768Z,978.2
2017-08-08T04:37:15.128Z,978.2
2017-08-08T04:38:17.549Z,978.2
2017-08-08T04:39:19.916Z,978.2
2017-08-08T04:40:22.395Z,978.1
2017-08-08T04:41:24.749Z,978.1
2017-08-08T04:42:27.106Z,978.1
2017-08-08T04:43:29.484Z,978.2
2017-08-08T04:44:31.919Z,978.2
2017-08-08T04:45:34.325Z,978.2
2017-08-08T04:46:37.644Z,978.2
2017-08-08T04:47:40.011Z,978.2
2017-08-08T04:48:42.398Z,978.2
2017-08-08T04:49:44.734Z,978.1
2017-08-08T04:50:48.261Z,978.2
2017-08-08T04:51:50.596Z,978.1
2017-08-08T04:52:53.045Z,978.2
2017-08-08T04:53:55.355Z,978.2
2017-08-08T04:54:57.800Z,978.1
2017-08-08T04:56:00.092Z,978
2017-08-08T04:57:02.494Z,978.1
2017-08-08T04:58:04.842Z,977.4
2017-08-08T04:59:07.193Z,977.9
2017-08-08T05:00:10.022Z,978
2017-08-08T05:01:12.397Z,977.6
2017-08-08T05:02:14.760Z,977.6
2017-08-08T05:03:17.125Z,978
2017-08-08T05:04:19.536Z,978
2017-08-08T05:05:21.939Z,978
2017-08-08T05:06:24.265Z,978
2017-08-08T05:07:26.638Z,978
2017-08-08T05:08:29.059Z,978
2017-08-08T05:09:31.438Z,978
2017-08-08T05:10:33.748Z,978
2017-08-08T05:11:36.037Z,977.5
2017-08-08T05:12:38.374Z,978
2017-08-08T05:13:41.009Z,977.4
2017-08-08T05:14:45.288Z,977.9
2017-08-08T05:15:47.651Z,977.9
2017-08-08T05:16:50.000Z,978
2017-08-08T05:17:52.446Z,977.6
2017-08-08T05:18:55.138Z,978
2017-08-08T05:19:57.465Z,978.1
2017-08-08T05:20:59.749Z,978.1
2017-08-08T05:22:02.337Z,978.1
2017-08-08T05:23:04.654Z,978.1
2017-08-08T05:24:07.100Z,978.1
2017-08-08T05:25:09.513Z,977.7
2017-08-08T05:26:12.029Z,977.9
2017-08-08T05:27:14.344Z,977.8
2017-08-08T05:28:16.674Z,977.8
2017-08-08T05:29:19.193Z,977.8
2017-08-08T05:30:21.712Z,977.8
2017-08-08T05:31:24.060Z,977.8
2017-08-08T05:32:26.412Z,977.7
2017-08-08T05:33:28.827Z,977.7
2017-08-08T05:34:31.559Z,977.8
2017-08-08T05:35:34.394Z,977.7
2017-08-08T05:36:36.795Z,977.6
2017-08-08T05:37:39.249Z,977.6
2017-08-08T05:38:41.657Z,977.7
2017-08-08T05:39:44.090Z,977.6
2017-08-08T05:40:46.448Z,977.6
2017-08-08T05:41:48.785Z,977.6
2017-08-08T05:42:51.650Z,977.3
2017-08-08T05:43:54.454Z,977.6
2017-08-08T05:44:56.998Z,977.6
2017-08-08T05:45:59.708Z,977.6
2017-08-08T05:47:02.337Z,976.8
2017-08-08T05:48:04.849Z,977.5
2017-08-08T05:49:07.302Z,977.6
2017-08-08T05:50:10.716Z,977.5
2017-08-08T05:51:13.472Z,977.4
2017-08-08T05:52:16.288Z,977.4
2017-08-08T05:53:19.111Z,977.5
2017-08-08T05:54:21.715Z,977.4
2017-08-08T05:55:24.518Z,977.3
2017-08-08T05:56:27.182Z,977.4
2017-08-08T05:57:29.851Z,977.3
2017-08-08T05:58:32.509Z,977.3
2017-08-08T05:59:35.183Z,977.2
2017-08-08T06:00:37.921Z,977.3
2017-08-08T06:01:40.805Z,977.2
2017-08-08T06:02:43.864Z,977.2
2017-08-08T06:03:46.541Z,977.2
2017-08-08T06:04:49.192Z,977.3
2017-08-08T06:05:51.801Z,977.3
2017-08-08T06:06:54.312Z,977.3
2017-08-08T06:07:56.771Z,977.3
2017-08-08T06:08:59.206Z,977.3
2017-08-08T06:10:01.872Z,977.3
2017-08-08T06:11:04.750Z,977.3
2017-08-08T06:12:07.445Z,977.3
2017-08-08T06:13:10.266Z,977.4
2017-08-08T06:14:12.886Z,977.2
2017-08-08T06:15:15.410Z,977.3
2017-08-08T06:16:18.158Z,977.4
2017-08-08T06:17:20.592Z,977.3
2017-08-08T06:18:23.247Z,977
2017-08-08T06:19:25.743Z,977.3
2017-08-08T06:20:29.008Z,977.4
2017-08-08T06:21:31.797Z,977.5
2017-08-08T06:22:34.321Z,977.4
2017-08-08T06:23:36.842Z,977.5
2017-08-08T06:24:39.339Z,977.5
2017-08-08T06:25:41.956Z,977.5
2017-08-08T06:26:44.650Z,976.7
2017-08-08T06:27:51.775Z,977.4
2017-08-08T06:28:54.229Z,977.4
2017-08-08T06:29:59.794Z,977
2017-08-08T06:31:03.200Z,977.4
2017-08-08T06:32:05.934Z,977.3
2017-08-08T06:33:08.380Z,977.3
2017-08-08T06:34:11.178Z,977.3
2017-08-08T06:35:14.200Z,977.3
2017-08-08T06:36:16.729Z,977.4
2017-08-08T06:37:19.402Z,977
2017-08-08T06:38:22.297Z,977.3
2017-08-08T06:39:24.919Z,977.3
2017-08-08T06:40:27.776Z,977.2
2017-08-08T06:41:30.281Z,977.3
2017-08-08T06:42:32.903Z,977.3
2017-08-08T06:43:35.446Z,977.3
2017-08-08T06:44:38.317Z,977.3
2017-08-08T06:45:40.989Z,977.3
2017-08-08T06:46:43.550Z,977.4
2017-08-08T06:47:46.197Z,977.4
2017-08-08T06:48:48.986Z,977.4
2017-08-08T06:49:51.607Z,977.4
2017-08-08T06:50:54.132Z,977.5
2017-08-08T06:51:56.664Z,977.5
2017-08-08T06:52:59.153Z,977.6
2017-08-08T06:54:01.931Z,977.5
2017-08-08T06:55:04.350Z,977.5
2017-08-08T06:56:06.902Z,977.6
2017-08-08T06:57:09.501Z,977.5
2017-08-08T06:58:12.182Z,977.5
2017-08-08T06:59:14.746Z,977.5
2017-08-08T07:00:17.587Z,977.5
2017-08-08T07:01:20.005Z,977.5
2017-08-08T07:02:22.464Z,977.5
2017-08-08T07:03:25.320Z,977.5
2017-08-08T07:04:28.273Z,977.5
2017-08-08T07:05:30.960Z,977.4
2017-08-08T07:06:33.652Z,977.4
2017-08-08T07:07:36.173Z,977.5
2017-08-08T07:08:38.795Z,977.5
2017-08-08T07:09:41.414Z,977.4
2017-08-08T07:10:44.086Z,976.9
2017-08-08T07:11:46.736Z,977.4
2017-08-08T07:12:49.366Z,976.6
2017-08-08T07:13:51.907Z,977.4
2017-08-08T07:14:54.406Z,977.4
2017-08-08T07:15:57.113Z,977.4
2017-08-08T07:16:59.631Z,977.4
2017-08-08T07:18:02.777Z,977.3
2017-08-08T07:19:05.923Z,977
2017-08-08T07:20:08.821Z,977
2017-08-08T07:21:12.762Z,977
2017-08-08T07:22:15.642Z,977.4
2017-08-08T07:23:18.616Z,977.4
2017-08-08T07:24:22.266Z,977.4
2017-08-08T07:25:25.497Z,977.3
2017-08-08T07:26:30.584Z,977.3
2017-08-08T07:27:34.332Z,977.4
2017-08-08T07:28:37.445Z,977.3
2017-08-08T07:29:40.776Z,977.3
2017-08-08T07:30:44.057Z,977.3
2017-08-08T07:31:47.885Z,977.2
2017-08-08T07:32:51.218Z,976.8
2017-08-08T07:34:01.142Z,977
2017-08-08T07:35:04.546Z,977.1
2017-08-08T07:36:07.841Z,977.4
2017-08-08T07:37:11.138Z,977.4
2017-08-08T07:38:15.542Z,977
2017-08-08T07:39:24.152Z,977
2017-08-08T07:40:27.127Z,977.3
2017-08-08T07:41:29.862Z,977.3
2017-08-08T07:42:32.289Z,977.2
2017-08-08T07:43:34.667Z,977.2
2017-08-08T07:44:37.523Z,977.2
2017-08-08T07:45:40.329Z,976.9
2017-08-08T07:46:42.913Z,977.2
2017-08-08T07:47:46.224Z,977.2
2017-08-08T07:48:48.924Z,977.2
2017-08-08T07:49:51.722Z,977.2
2017-08-08T07:50:55.033Z,977.2
2017-08-08T07:51:57.432Z,977.2
2017-08-08T07:52:59.821Z,977.2
2017-08-08T07:54:02.309Z,977.1
2017-08-08T07:55:04.780Z,977.1
2017-08-08T07:56:07.320Z,977.1
2017-08-08T07:57:09.693Z,977.1
2017-08-08T07:58:12.096Z,977.1
2017-08-08T07:59:14.614Z,977
2017-08-08T08:00:17.014Z,976.9
2017-08-08T08:01:19.748Z,976.9
2017-08-08T08:02:24.087Z,976.5
2017-08-08T08:03:32.043Z,977
2017-08-08T08:04:35.382Z,976.9
2017-08-08T08:05:38.279Z,976.9
2017-08-08T08:06:41.226Z,976.2
2017-08-08T08:07:44.805Z,976.8
2017-08-08T08:10:00.029Z,976.8
2017-08-08T08:11:02.927Z,976.1
2017-08-08T08:12:06.722Z,976.8
2017-08-08T08:13:12.559Z,976.8
2017-08-08T08:14:15.549Z,976.9
2017-08-08T08:15:19.075Z,976.7
2017-08-08T08:16:22.110Z,976.8
2017-08-08T08:17:25.598Z,976.8
2017-08-08T08:18:28.285Z,976.8
2017-08-08T08:19:31.146Z,976.8
2017-08-08T08:20:39.342Z,976.7
2017-08-08T08:21:43.233Z,976.3
2017-08-08T08:22:46.044Z,976.7
2017-08-08T08:23:48.744Z,976.6
2017-08-08T08:24:51.669Z,976.6
2017-08-08T08:25:54.632Z,976.7
2017-08-08T08:26:57.048Z,976.3
2017-08-08T08:27:59.571Z,976.7
2017-08-08T08:29:02.091Z,976.6
2017-08-08T08:30:04.459Z,976.8
2017-08-08T08:31:06.846Z,976.8
2017-08-08T08:32:09.314Z,976.7
2017-08-08T08:33:11.777Z,976.7
2017-08-08T08:34:14.309Z,976.6
2017-08-08T08:35:16.724Z,976.6
2017-08-08T08:36:19.170Z,976.6
2017-08-08T08:37:21.566Z,976.5
2017-08-08T08:38:24.044Z,976.6
2017-08-08T08:39:26.505Z,976.5
2017-08-08T08:40:28.875Z,976.5
2017-08-08T08:41:31.361Z,976.5
2017-08-08T08:42:33.855Z,976.4
2017-08-08T08:43:36.293Z,976.4
2017-08-08T08:44:38.674Z,976.5
2017-08-08T08:45:41.182Z,976.5
2017-08-08T08:46:43.746Z,976.4
2017-08-08T08:47:46.264Z,976.3
2017-08-08T08:48:48.832Z,976.3
2017-08-08T08:49:51.282Z,976.2
2017-08-08T08:50:54.642Z,976.2
2017-08-08T08:51:57.014Z,976.2
2017-08-08T08:52:59.484Z,976.2
2017-08-08T08:54:02.031Z,976.2
2017-08-08T08:55:04.464Z,976.1
2017-08-08T08:56:09.856Z,976.1
2017-08-08T08:57:12.236Z,976
2017-08-08T08:58:14.854Z,976
2017-08-08T08:59:17.346Z,976
2017-08-08T09:00:19.722Z,976
2017-08-08T09:01:22.248Z,975.9
2017-08-08T09:02:24.668Z,976
2017-08-08T09:03:27.061Z,976
2017-08-08T09:04:29.633Z,976
2017-08-08T09:05:32.005Z,976.1
2017-08-08T09:06:34.653Z,976
2017-08-08T09:07:37.178Z,975.6
2017-08-08T09:08:40.625Z,976.1
2017-08-08T09:09:43.041Z,976.2
2017-08-08T09:10:45.596Z,976.1
2017-08-08T09:11:48.055Z,976.2
2017-08-08T09:12:50.518Z,976.1
2017-08-08T09:13:53.523Z,976.1
2017-08-08T09:14:56.417Z,975.3
2017-08-08T09:15:58.986Z,976.1
2017-08-08T09:17:01.412Z,976.1
2017-08-08T09:18:04.158Z,976.1
2017-08-08T09:19:06.737Z,975.8
2017-08-08T09:20:09.238Z,976.1
2017-08-08T09:21:11.834Z,976.1
2017-08-08T09:22:14.442Z,976
2017-08-08T09:23:16.868Z,976.1
2017-08-08T09:24:19.290Z,976
2017-08-08T09:25:21.677Z,976
2017-08-08T09:26:24.228Z,976
2017-08-08T09:27:26.865Z,976
2017-08-08T09:28:29.555Z,976
2017-08-08T09:29:32.086Z,976.1
2017-08-08T09:30:34.527Z,975.5
2017-08-08T09:31:37.098Z,976.1
2017-08-08T09:32:39.613Z,976
2017-08-08T09:33:42.075Z,976
2017-08-08T09:34:44.566Z,976.1
2017-08-08T09:35:47.103Z,976.1
2017-08-08T09:36:49.768Z,976
2017-08-08T09:37:52.291Z,975.9
2017-08-08T09:38:55.109Z,975.9
2017-08-08T09:39:57.964Z,975.9
2017-08-08T09:41:00.808Z,976
2017-08-08T09:42:03.840Z,976
2017-08-08T09:43:07.013Z,975.5
2017-08-08T09:44:14.623Z,975.9
2017-08-08T09:45:17.106Z,975.9
2017-08-08T09:46:19.576Z,975.7
2017-08-08T09:47:22.033Z,975.9
2017-08-08T09:48:24.578Z,975.8
2017-08-08T09:49:26.971Z,975.7
2017-08-08T09:50:29.451Z,975.8
2017-08-08T09:51:31.943Z,975.7
2017-08-08T09:52:34.459Z,975.8
2017-08-08T09:53:37.029Z,975.5
2017-08-08T09:54:39.486Z,975.6
2017-08-08T09:55:41.955Z,975.8
2017-08-08T09:56:44.458Z,975.8
2017-08-08T09:57:46.957Z,975.7
2017-08-08T09:58:49.557Z,975.8
2017-08-08T09:59:52.079Z,975.9
2017-08-08T10:00:55.206Z,975.8
2017-08-08T10:01:57.710Z,975.9
2017-08-08T10:03:00.301Z,975.9
2017-08-08T10:04:02.755Z,975.1
2017-08-08T10:05:05.312Z,975.3
2017-08-08T10:06:07.726Z,975.8
2017-08-08T10:07:10.221Z,975.7
2017-08-08T10:08:12.736Z,975.8
2017-08-08T10:09:15.274Z,975.7
2017-08-08T10:10:17.756Z,975.4
2017-08-08T10:11:20.128Z,975.8
2017-08-08T10:12:22.660Z,975.8
2017-08-08T10:13:25.224Z,975.8
2017-08-08T10:14:27.742Z,975.7
2017-08-08T10:15:30.232Z,975.6
2017-08-08T10:16:32.742Z,975.6
2017-08-08T10:17:35.326Z,975.5
2017-08-08T10:18:37.903Z,975.6
2017-08-08T10:19:40.420Z,975.6
2017-08-08T10:20:42.946Z,975.2
2017-08-08T10:21:45.564Z,975.6
2017-08-08T10:22:48.119Z,975.6
2017-08-08T10:23:50.624Z,975.6
2017-08-08T10:24:53.228Z,975.7
2017-08-08T10:25:55.686Z,975.6
2017-08-08T10:26:58.159Z,975.6
2017-08-08T10:28:00.649Z,975.7
2017-08-08T10:29:03.114Z,975.6
2017-08-08T10:30:05.743Z,975.7
2017-08-08T10:31:08.192Z,975.6
2017-08-08T10:32:10.748Z,975.6
2017-08-08T10:33:13.227Z,975.6
2017-08-08T10:34:15.768Z,975.6
2017-08-08T10:35:18.331Z,975.6
2017-08-08T10:36:20.875Z,975.6
2017-08-08T10:37:23.324Z,975.6
2017-08-08T10:38:25.888Z,975.3
2017-08-08T10:39:28.515Z,975.5
2017-08-08T10:40:31.838Z,975.5
2017-08-08T10:41:34.578Z,975.5
2017-08-08T10:42:37.069Z,975.6
2017-08-08T10:43:39.634Z,975.4
2017-08-08T10:44:42.170Z,975.4
2017-08-08T10:45:44.717Z,975.5
2017-08-08T10:46:47.192Z,975.5
2017-08-08T10:47:54.548Z,975.5
2017-08-08T10:48:57.230Z,975.6
2017-08-08T10:49:59.747Z,975.5
2017-08-08T10:51:02.246Z,975.5
2017-08-08T10:52:04.873Z,975.5
2017-08-08T10:53:07.303Z,975.6
2017-08-08T10:54:09.839Z,975.6
2017-08-08T10:55:12.363Z,975.5
2017-08-08T10:56:14.887Z,975
2017-08-08T10:57:17.415Z,975.2
2017-08-08T10:58:21.462Z,975.5
2017-08-08T10:59:23.913Z,975.6
2017-08-08T11:00:26.537Z,975.3
2017-08-08T11:01:29.288Z,975.4
2017-08-08T11:02:31.935Z,975.6
2017-08-08T11:03:34.739Z,975.5
2017-08-08T11:04:37.826Z,975.4
2017-08-08T11:05:40.764Z,975.5
2017-08-08T11:06:43.507Z,975.4
2017-08-08T11:07:46.124Z,975.4
2017-08-08T11:08:48.568Z,975.5
2017-08-08T11:09:51.302Z,975.6
2017-08-08T11:10:53.862Z,975.6
2017-08-08T11:11:56.477Z,975.5
2017-08-08T11:12:59.040Z,975.5
2017-08-08T11:14:01.580Z,975.5
2017-08-08T11:15:04.316Z,975.5
2017-08-08T11:16:13.425Z,975.5
2017-08-08T11:18:26.576Z,975.5
2017-08-08T11:19:36.978Z,975.5
2017-08-08T11:20:39.857Z,975.1
2017-08-08T11:21:46.508Z,975.5
2017-08-08T11:22:49.117Z,975.6
2017-08-08T11:23:51.695Z,975.5
2017-08-08T11:24:54.734Z,975.6
2017-08-08T11:26:03.215Z,975.6
2017-08-08T11:27:05.753Z,975.6
2017-08-08T11:28:08.232Z,975.6
2017-08-08T11:29:10.654Z,975.6
2017-08-08T11:30:14.510Z,975.6
2017-08-08T11:31:16.991Z,975.7
2017-08-08T11:32:19.690Z,975.6
2017-08-08T11:33:22.159Z,975.3
2017-08-08T11:34:24.775Z,975.6
2017-08-08T11:35:27.209Z,975.2
2017-08-08T11:36:29.659Z,975.6
2017-08-08T11:37:32.151Z,975.5
2017-08-08T11:38:34.752Z,975.5
2017-08-08T11:39:37.304Z,975.5
2017-08-08T11:40:39.737Z,975.6
2017-08-08T11:41:42.290Z,975.6
2017-08-08T11:42:44.993Z,975.6
2017-08-08T11:43:47.477Z,975.6
2017-08-08T11:44:50.136Z,975.6
2017-08-08T11:45:52.554Z,975.5
2017-08-08T11:46:55.070Z,975.6
2017-08-08T11:47:57.660Z,975.6
2017-08-08T11:49:00.140Z,975.5
2017-08-08T11:50:02.639Z,975.2
2017-08-08T11:51:05.722Z,975.1
2017-08-08T11:52:08.193Z,975.6
2017-08-08T11:53:10.784Z,975.6
2017-08-08T11:54:13.313Z,975.7
2017-08-08T11:55:15.840Z,975.7
2017-08-08T11:56:18.402Z,975.6
2017-08-08T11:57:20.930Z,975.6
2017-08-08T11:58:23.407Z,975.7
2017-08-08T11:59:25.976Z,975.6
2017-08-08T12:00:28.459Z,975.7
2017-08-08T12:01:31.085Z,975.7
2017-08-08T12:02:34.634Z,975.7
2017-08-08T12:03:37.137Z,975.6
2017-08-08T12:04:39.645Z,975.7
2017-08-08T12:05:42.266Z,975.6
2017-08-08T12:06:44.979Z,975.6
2017-08-08T12:07:47.445Z,975.6
2017-08-08T12:08:49.866Z,975.6
2017-08-08T12:09:52.354Z,975.7
2017-08-08T12:10:54.897Z,975.7
2017-08-08T12:11:57.494Z,975.7
2017-08-08T12:13:02.029Z,975.7
2017-08-08T12:14:04.729Z,975.7
2017-08-08T12:15:07.712Z,975.8
2017-08-08T12:16:10.227Z,975.8
2017-08-08T12:17:12.800Z,975.7
2017-08-08T12:18:16.266Z,975.7
2017-08-08T12:19:18.732Z,975.7
2017-08-08T12:20:21.337Z,975.7
2017-08-08T12:21:23.766Z,975.6
2017-08-08T12:22:26.318Z,975.7
2017-08-08T12:23:28.864Z,975.7
2017-08-08T12:24:31.391Z,975.7
2017-08-08T12:25:35.439Z,975.6
2017-08-08T12:26:37.959Z,975.2
2017-08-08T12:27:41.050Z,975.7
2017-08-08T12:28:43.547Z,975.2
2017-08-08T12:29:46.178Z,975.7
2017-08-08T12:30:48.683Z,975.6
2017-08-08T12:31:51.625Z,975.6
2017-08-08T12:32:54.173Z,975.7
2017-08-08T12:33:56.815Z,975.7
2017-08-08T12:34:59.340Z,975.7
2017-08-08T12:36:01.818Z,975.7
2017-08-08T12:37:04.316Z,975.6
2017-08-08T12:38:06.820Z,975.2
2017-08-08T12:39:09.428Z,975.5
2017-08-08T12:40:11.970Z,975.5
2017-08-08T12:41:14.438Z,975.5
2017-08-08T12:42:17.005Z,975.5
2017-08-08T12:43:19.438Z,975.6
2017-08-08T12:44:21.899Z,975.6
2017-08-08T12:45:24.341Z,975.5
2017-08-08T12:46:29.926Z,975.6
2017-08-08T12:47:37.460Z,975.2
2017-08-08T12:48:40.976Z,975.3
2017-08-08T12:49:44.132Z,975.7
2017-08-08T12:50:46.797Z,975.7
2017-08-08T12:51:52.334Z,975.7
2017-08-08T12:52:55.076Z,975.5
2017-08-08T12:53:57.744Z,975.5
2017-08-08T12:55:01.308Z,975.2
2017-08-08T12:56:03.841Z,975.6
2017-08-08T12:57:06.390Z,975.6
2017-08-08T12:58:08.877Z,975.5
2017-08-08T12:59:11.282Z,975.5
2017-08-08T13:00:22.684Z,975.5
2017-08-08T13:01:29.493Z,975.6
2017-08-08T13:02:31.938Z,975.6
2017-08-08T13:03:34.496Z,975.8
2017-08-08T13:04:38.337Z,975.8
2017-08-08T13:05:40.995Z,975.6
2017-08-08T13:06:43.680Z,975.5
2017-08-08T13:07:46.328Z,975.9
2017-08-08T13:08:49.111Z,975.9
2017-08-08T13:09:52.136Z,975.6
2017-08-08T13:11:01.109Z,976.1
2017-08-08T13:12:03.850Z,976
2017-08-08T13:13:06.953Z,976.1
2017-08-08T13:14:09.542Z,975.7
2017-08-08T13:15:12.084Z,976.1
2017-08-08T13:16:14.632Z,976
2017-08-08T13:17:17.231Z,975.6
2017-08-08T13:18:20.670Z,975.9
2017-08-08T13:19:23.420Z,975.7
2017-08-08T13:20:26.641Z,975.6
2017-08-08T13:21:30.442Z,975.4
2017-08-08T13:22:34.192Z,975.2
2017-08-08T13:23:38.271Z,975.5
2017-08-08T13:24:46.521Z,975.5
2017-08-08T13:25:50.233Z,975.6
2017-08-08T13:28:03.870Z,975.6
2017-08-08T13:29:06.667Z,975.3
2017-08-08T13:30:09.478Z,975.5
2017-08-08T13:31:12.190Z,975.5
2017-08-08T13:32:15.225Z,975.6
2017-08-08T13:33:18.308Z,975.5
2017-08-08T13:34:21.418Z,975.6
2017-08-08T13:35:24.270Z,975.5
2017-08-08T13:36:27.278Z,975.5
2017-08-08T13:37:30.117Z,975.5
2017-08-08T13:38:33.479Z,975.5